DLH1390 GMMN-LPMA
Flight info
| Callsign | DLH1390 |
|---|---|
| Flight time | 1h 13m |
| Altitude | 30000 |
| Route | RAVO3D RAVOL NISBA RAKUN RAKU1P |
| Aircraft | A339/H-V/N |
Departure
| Time | 2026-05-07 18:02 |
|---|---|
| Airport | Mohammed V International Airport (GMMN) |
Arrival
| Time | 2026-05-07 19:16 |
|---|---|
| Airport | Cristiano Ronaldo International Airport (LPMA) |
| Time | Latitude | Longitude | Altitude | Speed | Heading |
|---|---|---|---|---|---|
| 2026-05-07 16:42 | 33.37254 | -7.58228 | 652 ft | 0 kts | 75° |
| 2026-05-07 16:46 | 33.37254 | -7.58229 | 652 ft | 0 kts | 75° |
| 2026-05-07 17:30 | 33.37252 | -7.58236 | 652 ft | 2 kts | 74° |
| 2026-05-07 17:30 | 33.37249 | -7.58254 | 652 ft | 2 kts | 75° |
| 2026-05-07 17:30 | 33.37244 | -7.58271 | 652 ft | 2 kts | 77° |
| 2026-05-07 17:30 | 33.37243 | -7.58290 | 652 ft | 2 kts | 104° |
| 2026-05-07 17:31 | 33.37249 | -7.58308 | 652 ft | 2 kts | 126° |
| 2026-05-07 17:31 | 33.37260 | -7.58321 | 652 ft | 2 kts | 147° |
| 2026-05-07 17:31 | 33.37271 | -7.58328 | 652 ft | 0 kts | 164° |
| 2026-05-07 17:31 | 33.37274 | -7.58329 | 652 ft | 0 kts | 165° |
| 2026-05-07 17:34 | 33.37266 | -7.58326 | 652 ft | 2 kts | 163° |
| 2026-05-07 17:34 | 33.37237 | -7.58315 | 652 ft | 6 kts | 162° |
| 2026-05-07 17:35 | 33.37177 | -7.58295 | 652 ft | 11 kts | 166° |
| 2026-05-07 17:35 | 33.37083 | -7.58265 | 651 ft | 16 kts | 163° |
| 2026-05-07 17:35 | 33.36958 | -7.58252 | 649 ft | 18 kts | 231° |
| 2026-05-07 17:35 | 33.36907 | -7.58409 | 649 ft | 10 kts | 254° |
| 2026-05-07 17:36 | 33.36843 | -7.58461 | 649 ft | 12 kts | 171° |
| 2026-05-07 17:36 | 33.36745 | -7.58427 | 649 ft | 15 kts | 163° |
| 2026-05-07 17:36 | 33.36626 | -7.58388 | 650 ft | 18 kts | 164° |
| 2026-05-07 17:36 | 33.36494 | -7.58343 | 652 ft | 20 kts | 163° |
| 2026-05-07 17:37 | 33.36350 | -7.58292 | 655 ft | 21 kts | 163° |
| 2026-05-07 17:37 | 33.36193 | -7.58238 | 655 ft | 24 kts | 163° |
| 2026-05-07 17:37 | 33.36032 | -7.58183 | 658 ft | 19 kts | 163° |
| 2026-05-07 17:37 | 33.35901 | -7.58139 | 658 ft | 19 kts | 163° |
| 2026-05-07 17:38 | 33.35771 | -7.58094 | 659 ft | 18 kts | 163° |
| 2026-05-07 17:38 | 33.35656 | -7.58054 | 659 ft | 16 kts | 163° |
| 2026-05-07 17:38 | 33.35609 | -7.58038 | 660 ft | 2 kts | 163° |
| 2026-05-07 17:42 | 33.35608 | -7.58038 | 660 ft | 0 kts | 163° |
| 2026-05-07 17:42 | 33.35606 | -7.58037 | 660 ft | 1 kts | 163° |
| 2026-05-07 17:42 | 33.35589 | -7.58031 | 660 ft | 3 kts | 163° |
| 2026-05-07 17:42 | 33.35555 | -7.58019 | 661 ft | 6 kts | 163° |
| 2026-05-07 17:43 | 33.35509 | -7.58003 | 661 ft | 6 kts | 162° |
| 2026-05-07 17:43 | 33.35489 | -7.57996 | 662 ft | 1 kts | 164° |
| 2026-05-07 17:43 | 33.35478 | -7.57993 | 662 ft | 1 kts | 164° |
| 2026-05-07 17:43 | 33.35469 | -7.57990 | 662 ft | 2 kts | 163° |
| 2026-05-07 17:44 | 33.35464 | -7.57988 | 662 ft | 0 kts | 164° |
| 2026-05-07 17:44 | 33.35461 | -7.57987 | 662 ft | 2 kts | 164° |
| 2026-05-07 17:45 | 33.35428 | -7.57976 | 662 ft | 7 kts | 164° |
| 2026-05-07 17:45 | 33.35422 | -7.57974 | 662 ft | 0 kts | 164° |
| 2026-05-07 17:49 | 33.35413 | -7.57971 | 662 ft | 3 kts | 164° |
| 2026-05-07 17:49 | 33.35374 | -7.57958 | 663 ft | 5 kts | 163° |
| 2026-05-07 17:49 | 33.35370 | -7.57956 | 663 ft | 0 kts | 163° |
| 2026-05-07 17:51 | 33.35362 | -7.57954 | 663 ft | 3 kts | 163° |
| 2026-05-07 17:52 | 33.35322 | -7.57944 | 663 ft | 6 kts | 177° |
| 2026-05-07 17:52 | 33.35298 | -7.57948 | 663 ft | 1 kts | 197° |
| 2026-05-07 17:52 | 33.35298 | -7.57949 | 663 ft | 0 kts | 197° |
| 2026-05-07 17:54 | 33.35283 | -7.57957 | 663 ft | 5 kts | 207° |
| 2026-05-07 17:54 | 33.35260 | -7.57986 | 663 ft | 0 kts | 244° |
| 2026-05-07 17:54 | 33.35260 | -7.57987 | 663 ft | 0 kts | 244° |
| 2026-05-07 17:55 | 33.35255 | -7.58000 | 663 ft | 0 kts | 249° |
| 2026-05-07 17:56 | 33.35254 | -7.58005 | 663 ft | 2 kts | 250° |
| 2026-05-07 17:56 | 33.35243 | -7.58044 | 664 ft | 7 kts | 253° |
| 2026-05-07 17:56 | 33.35235 | -7.58077 | 663 ft | 0 kts | 253° |
| 2026-05-07 17:58 | 33.35234 | -7.58080 | 663 ft | 1 kts | 254° |
| 2026-05-07 17:59 | 33.35226 | -7.58115 | 663 ft | 6 kts | 253° |
| 2026-05-07 17:59 | 33.35213 | -7.58188 | 663 ft | 11 kts | 267° |
| 2026-05-07 17:59 | 33.35260 | -7.58277 | 662 ft | 15 kts | 339° |
| 2026-05-07 17:59 | 33.35331 | -7.58303 | 662 ft | 0 kts | 343° |
| 2026-05-07 18:01 | 33.35435 | -7.58338 | 662 ft | 50 kts | 343° |
| 2026-05-07 18:02 | 33.37300 | -7.59007 | 951 ft | 185 kts | 340° |
| 2026-05-07 18:02 | 33.38533 | -7.59522 | 1373 ft | 188 kts | 341° |
| 2026-05-07 18:02 | 33.39883 | -7.60100 | 1678 ft | 215 kts | 343° |
| 2026-05-07 18:03 | 33.41228 | -7.60687 | 2804 ft | 203 kts | 329° |
| 2026-05-07 18:03 | 33.42195 | -7.62004 | 3393 ft | 230 kts | 294° |
| 2026-05-07 18:03 | 33.42394 | -7.64020 | 4539 ft | 259 kts | 268° |
| 2026-05-07 18:03 | 33.42479 | -7.66224 | 5809 ft | 279 kts | 274° |
| 2026-05-07 18:04 | 33.42711 | -7.68612 | 7056 ft | 300 kts | 275° |
| 2026-05-07 18:04 | 33.42998 | -7.71137 | 8346 ft | 317 kts | 275° |
| 2026-05-07 18:04 | 33.43312 | -7.73806 | 9573 ft | 334 kts | 275° |
| 2026-05-07 18:04 | 33.43651 | -7.76659 | 10655 ft | 355 kts | 275° |
| 2026-05-07 18:05 | 33.44011 | -7.79672 | 11818 ft | 370 kts | 274° |
| 2026-05-07 18:05 | 33.44374 | -7.82730 | 13163 ft | 377 kts | 274° |
| 2026-05-07 18:05 | 33.44739 | -7.85793 | 14170 ft | 372 kts | 274° |
| 2026-05-07 18:05 | 33.45109 | -7.88943 | 14515 ft | 384 kts | 274° |
| 2026-05-07 18:06 | 33.45490 | -7.92159 | 15223 ft | 384 kts | 274° |
| 2026-05-07 18:06 | 33.45862 | -7.95316 | 16536 ft | 384 kts | 274° |
| 2026-05-07 18:06 | 33.46230 | -7.98443 | 17813 ft | 384 kts | 274° |
| 2026-05-07 18:06 | 33.46602 | -8.01621 | 18747 ft | 390 kts | 274° |
| 2026-05-07 18:07 | 33.46979 | -8.04833 | 19578 ft | 397 kts | 274° |
| 2026-05-07 18:07 | 33.47369 | -8.08165 | 20039 ft | 399 kts | 274° |
| 2026-05-07 18:07 | 33.47776 | -8.11673 | 19779 ft | 402 kts | 274° |
| 2026-05-07 18:07 | 33.48170 | -8.15062 | 19767 ft | 407 kts | 274° |
| 2026-05-07 18:08 | 33.48565 | -8.18439 | 20647 ft | 399 kts | 274° |
| 2026-05-07 18:08 | 33.48957 | -8.21835 | 21125 ft | 402 kts | 274° |
| 2026-05-07 18:08 | 33.49352 | -8.25266 | 21504 ft | 406 kts | 274° |
| 2026-05-07 18:08 | 33.49744 | -8.28677 | 22039 ft | 406 kts | 274° |
| 2026-05-07 18:09 | 33.50130 | -8.32030 | 22455 ft | 408 kts | 274° |
| 2026-05-07 18:09 | 33.50528 | -8.35504 | 22817 ft | 412 kts | 274° |
| 2026-05-07 18:09 | 33.50921 | -8.38944 | 23255 ft | 413 kts | 274° |
| 2026-05-07 18:09 | 33.51312 | -8.42380 | 23769 ft | 413 kts | 274° |
| 2026-05-07 18:10 | 33.51698 | -8.45771 | 24079 ft | 417 kts | 274° |
| 2026-05-07 18:10 | 33.52392 | -8.49216 | 24473 ft | 425 kts | 284° |
| 2026-05-07 18:10 | 33.53405 | -8.52583 | 24850 ft | 425 kts | 285° |
| 2026-05-07 18:10 | 33.54395 | -8.55906 | 24916 ft | 426 kts | 285° |
| 2026-05-07 18:11 | 33.55391 | -8.59261 | 24869 ft | 427 kts | 285° |
| 2026-05-07 18:11 | 33.56082 | -8.61605 | 24937 ft | 432 kts | 284° |
| 2026-05-07 18:11 | 33.57452 | -8.66236 | 25553 ft | 432 kts | 284° |
| 2026-05-07 18:11 | 33.58442 | -8.69589 | 26620 ft | 426 kts | 284° |
| 2026-05-07 18:12 | 33.59413 | -8.72869 | 28103 ft | 408 kts | 284° |
| 2026-05-07 18:12 | 33.60335 | -8.75999 | 29367 ft | 394 kts | 284° |
| 2026-05-07 18:12 | 33.61271 | -8.79188 | 29966 ft | 394 kts | 284° |
| 2026-05-07 18:12 | 33.62206 | -8.82387 | 29849 ft | 410 kts | 284° |
| 2026-05-07 18:13 | 33.63175 | -8.85687 | 29965 ft | 420 kts | 284° |
| 2026-05-07 18:13 | 33.64159 | -8.89047 | 29924 ft | 432 kts | 284° |
| 2026-05-07 18:13 | 33.65159 | -8.92460 | 29897 ft | 442 kts | 284° |
| 2026-05-07 18:14 | 33.67235 | -8.99556 | 29887 ft | 455 kts | 284° |
| 2026-05-07 18:14 | 33.68026 | -9.03245 | 29909 ft | 450 kts | 273° |
| 2026-05-07 18:14 | 33.68072 | -9.06989 | 29969 ft | 448 kts | 265° |
| 2026-05-07 18:15 | 33.68063 | -9.14534 | 29927 ft | 448 kts | 267° |
| 2026-05-07 18:15 | 33.68113 | -9.22006 | 29884 ft | 446 kts | 267° |
| 2026-05-07 18:16 | 33.68164 | -9.29410 | 29937 ft | 446 kts | 267° |
| 2026-05-07 18:16 | 33.68214 | -9.36849 | 29966 ft | 446 kts | 267° |
| 2026-05-07 18:17 | 33.68259 | -9.44321 | 29906 ft | 444 kts | 267° |
| 2026-05-07 18:17 | 33.68299 | -9.51746 | 29903 ft | 448 kts | 267° |
| 2026-05-07 18:18 | 33.68335 | -9.59241 | 29969 ft | 446 kts | 267° |
| 2026-05-07 18:18 | 33.68367 | -9.66802 | 29957 ft | 445 kts | 266° |
| 2026-05-07 18:19 | 33.68395 | -9.74317 | 29902 ft | 446 kts | 266° |
| 2026-05-07 18:19 | 33.68416 | -9.81754 | 29954 ft | 447 kts | 266° |
| 2026-05-07 18:20 | 33.68435 | -9.89287 | 29984 ft | 445 kts | 266° |
| 2026-05-07 18:20 | 33.68448 | -9.96785 | 29935 ft | 446 kts | 266° |
| 2026-05-07 18:21 | 33.68457 | -10.04240 | 29905 ft | 445 kts | 266° |
| 2026-05-07 18:21 | 33.68461 | -10.11705 | 29971 ft | 445 kts | 266° |
| 2026-05-07 18:22 | 33.68462 | -10.19169 | 29969 ft | 444 kts | 266° |
| 2026-05-07 18:22 | 33.68457 | -10.26556 | 29912 ft | 442 kts | 266° |
| 2026-05-07 18:23 | 33.68446 | -10.34040 | 29921 ft | 446 kts | 266° |
| 2026-05-07 18:23 | 33.68436 | -10.41472 | 29982 ft | 444 kts | 265° |
| 2026-05-07 18:24 | 33.68416 | -10.48885 | 29945 ft | 441 kts | 265° |
| 2026-05-07 18:24 | 33.68394 | -10.56281 | 29898 ft | 443 kts | 265° |
| 2026-05-07 18:25 | 33.68366 | -10.63704 | 29952 ft | 445 kts | 265° |
| 2026-05-07 18:25 | 33.68335 | -10.71063 | 29995 ft | 443 kts | 265° |
| 2026-05-07 18:26 | 33.68300 | -10.78585 | 29929 ft | 443 kts | 265° |
| 2026-05-07 18:26 | 33.68259 | -10.85963 | 29906 ft | 444 kts | 264° |
| 2026-05-07 18:27 | 33.68215 | -10.93410 | 29973 ft | 443 kts | 264° |
| 2026-05-07 18:27 | 33.68167 | -11.00764 | 29988 ft | 442 kts | 264° |
| 2026-05-07 18:28 | 33.68115 | -11.08151 | 29910 ft | 442 kts | 264° |
| 2026-05-07 18:28 | 33.68054 | -11.15636 | 29914 ft | 443 kts | 264° |
| 2026-05-07 18:29 | 33.67993 | -11.23144 | 29981 ft | 443 kts | 264° |
| 2026-05-07 18:29 | 33.67927 | -11.30516 | 29974 ft | 441 kts | 264° |
| 2026-05-07 18:30 | 33.67853 | -11.37988 | 29908 ft | 443 kts | 264° |
| 2026-05-07 18:30 | 33.67780 | -11.45379 | 29948 ft | 443 kts | 264° |
| 2026-05-07 18:31 | 33.67697 | -11.52980 | 29998 ft | 443 kts | 264° |
| 2026-05-07 18:31 | 33.67611 | -11.60607 | 29967 ft | 440 kts | 264° |
| 2026-05-07 18:32 | 33.67519 | -11.68251 | 29926 ft | 443 kts | 263° |
| 2026-05-07 18:32 | 33.67423 | -11.75879 | 29934 ft | 444 kts | 263° |
| 2026-05-07 18:33 | 33.67320 | -11.83556 | 29975 ft | 445 kts | 263° |
| 2026-05-07 18:33 | 33.67216 | -11.91127 | 29983 ft | 444 kts | 263° |
| 2026-05-07 18:34 | 33.67104 | -11.98787 | 29918 ft | 442 kts | 263° |
| 2026-05-07 18:34 | 33.66992 | -12.06270 | 29921 ft | 442 kts | 262° |
| 2026-05-07 18:35 | 33.66877 | -12.13633 | 29986 ft | 443 kts | 263° |
| 2026-05-07 18:35 | 33.66753 | -12.21263 | 29964 ft | 441 kts | 263° |
| 2026-05-07 18:36 | 33.66622 | -12.28917 | 29907 ft | 441 kts | 263° |
| 2026-05-07 18:36 | 33.66491 | -12.36435 | 29933 ft | 444 kts | 263° |
| 2026-05-07 18:37 | 33.66357 | -12.43840 | 29992 ft | 442 kts | 263° |
| 2026-05-07 18:37 | 33.66214 | -12.51534 | 29947 ft | 440 kts | 263° |
| 2026-05-07 18:38 | 33.66068 | -12.59018 | 29898 ft | 441 kts | 263° |
| 2026-05-07 18:38 | 33.65918 | -12.66460 | 29955 ft | 446 kts | 263° |
| 2026-05-07 18:39 | 33.65763 | -12.74089 | 29981 ft | 451 kts | 263° |
| 2026-05-07 18:39 | 33.65599 | -12.81857 | 29903 ft | 449 kts | 263° |
| 2026-05-07 18:40 | 33.65432 | -12.89532 | 29938 ft | 449 kts | 263° |
| 2026-05-07 18:40 | 33.65265 | -12.97000 | 30002 ft | 444 kts | 263° |
| 2026-05-07 18:41 | 33.65091 | -13.04553 | 29946 ft | 444 kts | 263° |
| 2026-05-07 18:41 | 33.64912 | -13.12110 | 29896 ft | 447 kts | 263° |
| 2026-05-07 18:42 | 33.64732 | -13.19517 | 29974 ft | 446 kts | 263° |
| 2026-05-07 18:42 | 33.64547 | -13.27009 | 30020 ft | 446 kts | 263° |
| 2026-05-07 18:43 | 33.64354 | -13.34605 | 29948 ft | 443 kts | 263° |
| 2026-05-07 18:43 | 33.64153 | -13.42360 | 29903 ft | 446 kts | 263° |
| 2026-05-07 18:44 | 33.63945 | -13.50077 | 29966 ft | 446 kts | 263° |
| 2026-05-07 18:44 | 33.63734 | -13.57806 | 30025 ft | 445 kts | 263° |
| 2026-05-07 18:44 | 33.63628 | -13.61639 | 29920 ft | 445 kts | 264° |
| 2026-05-07 18:45 | 33.63520 | -13.65519 | 29964 ft | 442 kts | 263° |
| 2026-05-07 18:45 | 33.63303 | -13.73247 | 29920 ft | 444 kts | 263° |
| 2026-05-07 18:46 | 33.63070 | -13.81048 | 29968 ft | 444 kts | 263° |
| 2026-05-07 18:46 | 33.62840 | -13.88786 | 30031 ft | 443 kts | 263° |
| 2026-05-07 18:46 | 33.62722 | -13.92735 | 29917 ft | 445 kts | 263° |
| 2026-05-07 18:47 | 33.62604 | -13.96582 | 29996 ft | 443 kts | 263° |
| 2026-05-07 18:47 | 33.62362 | -14.04387 | 29915 ft | 442 kts | 263° |
| 2026-05-07 18:48 | 33.62114 | -14.12177 | 29919 ft | 446 kts | 263° |
| 2026-05-07 18:48 | 33.61863 | -14.19939 | 29994 ft | 445 kts | 263° |
| 2026-05-07 18:48 | 33.61733 | -14.23896 | 29884 ft | 444 kts | 263° |
| 2026-05-07 18:49 | 33.61605 | -14.27769 | 29998 ft | 443 kts | 263° |
| 2026-05-07 18:49 | 33.61343 | -14.35530 | 29911 ft | 444 kts | 264° |
| 2026-05-07 18:50 | 33.61078 | -14.43355 | 29892 ft | 443 kts | 264° |
| 2026-05-07 18:50 | 33.60812 | -14.51010 | 29963 ft | 445 kts | 264° |
| 2026-05-07 18:51 | 33.60545 | -14.58590 | 29684 ft | 432 kts | 264° |
| 2026-05-07 18:51 | 33.60416 | -14.62146 | 28423 ft | 434 kts | 265° |
| 2026-05-07 18:51 | 33.60283 | -14.65752 | 27196 ft | 433 kts | 264° |
| 2026-05-07 18:51 | 33.60150 | -14.69418 | 26426 ft | 423 kts | 265° |
| 2026-05-07 18:52 | 33.60021 | -14.72946 | 25679 ft | 415 kts | 265° |
| 2026-05-07 18:52 | 33.59892 | -14.76399 | 24619 ft | 416 kts | 265° |
| 2026-05-07 18:52 | 33.59764 | -14.79822 | 23851 ft | 408 kts | 265° |
| 2026-05-07 18:52 | 33.59640 | -14.83161 | 23071 ft | 402 kts | 265° |
| 2026-05-07 18:53 | 33.59512 | -14.86489 | 22219 ft | 398 kts | 266° |
| 2026-05-07 18:53 | 33.59386 | -14.89798 | 21336 ft | 395 kts | 266° |
| 2026-05-07 18:53 | 33.59260 | -14.93081 | 20501 ft | 391 kts | 266° |
| 2026-05-07 18:53 | 33.59136 | -14.96300 | 19764 ft | 384 kts | 267° |
| 2026-05-07 18:54 | 33.59013 | -14.99476 | 18910 ft | 381 kts | 267° |
| 2026-05-07 18:54 | 33.58888 | -15.02675 | 18074 ft | 378 kts | 267° |
| 2026-05-07 18:54 | 33.58765 | -15.05777 | 17316 ft | 373 kts | 268° |
| 2026-05-07 18:54 | 33.58641 | -15.08894 | 16452 ft | 371 kts | 268° |
| 2026-05-07 18:55 | 33.58519 | -15.11994 | 15582 ft | 370 kts | 268° |
| 2026-05-07 18:55 | 33.58397 | -15.15028 | 14808 ft | 367 kts | 268° |
| 2026-05-07 18:55 | 33.58273 | -15.18098 | 13982 ft | 364 kts | 268° |
| 2026-05-07 18:55 | 33.58150 | -15.21128 | 13211 ft | 362 kts | 268° |
| 2026-05-07 18:56 | 33.58027 | -15.24142 | 12435 ft | 359 kts | 268° |
| 2026-05-07 18:56 | 33.57906 | -15.27103 | 11708 ft | 356 kts | 268° |
| 2026-05-07 18:56 | 33.57785 | -15.30044 | 10960 ft | 353 kts | 268° |
| 2026-05-07 18:56 | 33.57663 | -15.32943 | 10235 ft | 351 kts | 267° |
| 2026-05-07 18:57 | 33.57540 | -15.35895 | 9867 ft | 353 kts | 268° |
| 2026-05-07 18:57 | 33.57418 | -15.38781 | 10050 ft | 347 kts | 268° |
| 2026-05-07 18:57 | 33.57296 | -15.41655 | 9912 ft | 346 kts | 268° |
| 2026-05-07 18:57 | 33.57173 | -15.44546 | 9932 ft | 341 kts | 268° |
| 2026-05-07 18:58 | 33.57051 | -15.47406 | 9979 ft | 345 kts | 268° |
| 2026-05-07 18:58 | 33.56928 | -15.50269 | 9900 ft | 344 kts | 268° |
| 2026-05-07 18:58 | 33.56803 | -15.53147 | 9967 ft | 343 kts | 268° |
| 2026-05-07 18:58 | 33.56678 | -15.56016 | 9937 ft | 344 kts | 268° |
| 2026-05-07 18:59 | 33.56502 | -15.58912 | 9912 ft | 345 kts | 262° |
| 2026-05-07 18:59 | 33.55696 | -15.61681 | 9948 ft | 348 kts | 246° |
| 2026-05-07 18:59 | 33.54357 | -15.64295 | 9921 ft | 351 kts | 238° |
| 2026-05-07 18:59 | 33.52820 | -15.66730 | 9934 ft | 352 kts | 234° |
| 2026-05-07 19:00 | 33.51182 | -15.69127 | 9957 ft | 352 kts | 233° |
| 2026-05-07 19:00 | 33.49577 | -15.71400 | 9928 ft | 352 kts | 232° |
| 2026-05-07 19:00 | 33.47943 | -15.73683 | 9946 ft | 351 kts | 232° |
| 2026-05-07 19:00 | 33.46252 | -15.76029 | 9958 ft | 352 kts | 232° |
| 2026-05-07 19:01 | 33.44550 | -15.78384 | 9921 ft | 354 kts | 232° |
| 2026-05-07 19:01 | 33.42869 | -15.80705 | 9951 ft | 352 kts | 232° |
| 2026-05-07 19:01 | 33.41195 | -15.83015 | 9953 ft | 352 kts | 232° |
| 2026-05-07 19:01 | 33.39486 | -15.85371 | 9928 ft | 351 kts | 232° |
| 2026-05-07 19:02 | 33.37786 | -15.87713 | 9971 ft | 354 kts | 232° |
| 2026-05-07 19:02 | 33.36110 | -15.90020 | 9944 ft | 354 kts | 232° |
| 2026-05-07 19:02 | 33.34412 | -15.92357 | 9934 ft | 352 kts | 232° |
| 2026-05-07 19:02 | 33.32693 | -15.94719 | 9962 ft | 354 kts | 232° |
| 2026-05-07 19:03 | 33.31027 | -15.97009 | 9940 ft | 353 kts | 232° |
| 2026-05-07 19:03 | 33.29417 | -15.99216 | 9980 ft | 352 kts | 232° |
| 2026-05-07 19:03 | 33.27798 | -16.01438 | 9965 ft | 353 kts | 232° |
| 2026-05-07 19:03 | 33.26137 | -16.03718 | 9946 ft | 354 kts | 232° |
| 2026-05-07 19:04 | 33.24526 | -16.05924 | 9879 ft | 346 kts | 232° |
| 2026-05-07 19:04 | 33.22949 | -16.08084 | 9136 ft | 347 kts | 232° |
| 2026-05-07 19:04 | 33.21354 | -16.10270 | 8351 ft | 347 kts | 231° |
| 2026-05-07 19:04 | 33.19780 | -16.12421 | 7760 ft | 342 kts | 232° |
| 2026-05-07 19:05 | 33.18219 | -16.14556 | 7091 ft | 340 kts | 231° |
| 2026-05-07 19:05 | 33.16666 | -16.16678 | 6408 ft | 338 kts | 231° |
| 2026-05-07 19:05 | 33.15149 | -16.18749 | 5775 ft | 335 kts | 231° |
| 2026-05-07 19:05 | 33.13604 | -16.20859 | 5158 ft | 332 kts | 230° |
| 2026-05-07 19:06 | 33.12094 | -16.22920 | 4559 ft | 329 kts | 230° |
| 2026-05-07 19:06 | 33.09125 | -16.26965 | 3352 ft | 324 kts | 230° |
| 2026-05-07 19:06 | 33.07619 | -16.29017 | 2931 ft | 324 kts | 229° |
| 2026-05-07 19:07 | 33.06139 | -16.31028 | 3039 ft | 324 kts | 230° |
| 2026-05-07 19:07 | 33.04647 | -16.33057 | 2972 ft | 322 kts | 230° |
| 2026-05-07 19:07 | 33.03188 | -16.35039 | 2944 ft | 305 kts | 229° |
| 2026-05-07 19:07 | 33.01819 | -16.36901 | 2985 ft | 285 kts | 230° |
| 2026-05-07 19:08 | 33.00540 | -16.38641 | 2943 ft | 270 kts | 230° |
| 2026-05-07 19:08 | 32.99332 | -16.40280 | 2967 ft | 254 kts | 230° |
| 2026-05-07 19:08 | 32.98150 | -16.41886 | 2961 ft | 242 kts | 230° |
| 2026-05-07 19:08 | 32.96989 | -16.43461 | 2970 ft | 239 kts | 230° |
| 2026-05-07 19:09 | 32.95846 | -16.45011 | 2978 ft | 238 kts | 230° |
| 2026-05-07 19:09 | 32.94693 | -16.46573 | 2968 ft | 238 kts | 230° |
| 2026-05-07 19:09 | 32.93565 | -16.48101 | 2977 ft | 239 kts | 230° |
| 2026-05-07 19:09 | 32.92433 | -16.49634 | 2978 ft | 240 kts | 230° |
| 2026-05-07 19:10 | 32.91300 | -16.51164 | 2969 ft | 238 kts | 230° |
| 2026-05-07 19:10 | 32.90211 | -16.52638 | 2965 ft | 230 kts | 230° |
| 2026-05-07 19:10 | 32.89139 | -16.54088 | 2955 ft | 218 kts | 230° |
| 2026-05-07 19:10 | 32.88147 | -16.55427 | 2957 ft | 207 kts | 230° |
| 2026-05-07 19:11 | 32.87205 | -16.56700 | 2966 ft | 200 kts | 230° |
| 2026-05-07 19:11 | 32.86283 | -16.57946 | 2901 ft | 197 kts | 230° |
| 2026-05-07 19:11 | 32.85375 | -16.59164 | 2710 ft | 197 kts | 227° |
| 2026-05-07 19:11 | 32.84322 | -16.60313 | 2386 ft | 202 kts | 224° |
| 2026-05-07 19:12 | 32.83289 | -16.61587 | 1855 ft | 216 kts | 230° |
| 2026-05-07 19:12 | 32.82246 | -16.62850 | 1652 ft | 216 kts | 224° |
| 2026-05-07 19:12 | 32.81112 | -16.64138 | 1347 ft | 217 kts | 225° |
| 2026-05-07 19:12 | 32.80013 | -16.65426 | 1030 ft | 212 kts | 226° |
| 2026-05-07 19:13 | 32.78970 | -16.66665 | 756 ft | 211 kts | 226° |
| 2026-05-07 19:13 | 32.77929 | -16.67898 | 1568 ft | 205 kts | 226° |
| 2026-05-07 19:13 | 32.76903 | -16.69061 | 1704 ft | 183 kts | 225° |
| 2026-05-07 19:13 | 32.75968 | -16.70031 | 1571 ft | 163 kts | 223° |
| 2026-05-07 19:14 | 32.75132 | -16.71004 | 1517 ft | 164 kts | 228° |
| 2026-05-07 19:14 | 32.74372 | -16.72009 | 1416 ft | 158 kts | 228° |
| 2026-05-07 19:14 | 32.73573 | -16.72958 | 998 ft | 156 kts | 226° |
| 2026-05-07 19:14 | 32.72773 | -16.73865 | 785 ft | 151 kts | 228° |
| 2026-05-07 19:15 | 32.72056 | -16.74768 | 628 ft | 150 kts | 225° |
| 2026-05-07 19:15 | 32.71263 | -16.75701 | 353 ft | 149 kts | 226° |
| 2026-05-07 19:15 | 32.70496 | -16.76599 | 176 ft | 141 kts | 230° |
| 2026-05-07 19:15 | 32.69907 | -16.77306 | 212 ft | 89 kts | 225° |
| 2026-05-07 19:16 | 32.69600 | -16.77667 | 216 ft | 36 kts | 226° |
| 2026-05-07 19:16 | 32.69385 | -16.77918 | 199 ft | 31 kts | 227° |
| 2026-05-07 19:16 | 32.69289 | -16.77921 | 183 ft | 11 kts | 95° |
| 2026-05-07 19:16 | 32.69308 | -16.77828 | 180 ft | 15 kts | 51° |
| 2026-05-07 19:17 | 32.69400 | -16.77716 | 189 ft | 22 kts | 46° |
| 2026-05-07 19:17 | 32.69502 | -16.77589 | 192 ft | 14 kts | 45° |
| 2026-05-07 19:17 | 32.69525 | -16.77511 | 186 ft | 10 kts | 148° |
| 2026-05-07 19:17 | 32.69496 | -16.77484 | 178 ft | 5 kts | 136° |
| 2026-05-07 19:18 | 32.69487 | -16.77475 | 175 ft | 0 kts | 139° |